sensor_id;sensor_type;location;lat;lon;timestamp;pressure;altitude;pressure_sealevel;temperature;humidity
63343;BME280;49465;57.664;39.686;2023-02-10T00:01:41;101256.38;;;2.10;53.18
63343;BME280;49465;57.664;39.686;2023-02-10T00:04:19;101254.63;;;2.09;53.26
63343;BME280;49465;57.664;39.686;2023-02-10T00:07:01;101249.31;;;2.20;52.82
63343;BME280;49465;57.664;39.686;2023-02-10T00:09:36;101246.06;;;2.06;52.86
63343;BME280;49465;57.664;39.686;2023-02-10T00:12:16;101244.06;;;2.25;53.08
63343;BME280;49465;57.664;39.686;2023-02-10T00:14:51;101245.09;;;2.13;53.20
63343;BME280;49465;57.664;39.686;2023-02-10T00:17:38;101238.13;;;2.20;53.73
63343;BME280;49465;57.664;39.686;2023-02-10T00:20:05;101232.47;;;1.93;53.03
63343;BME280;49465;57.664;39.686;2023-02-10T00:22:44;101229.03;;;1.92;53.37
63343;BME280;49465;57.664;39.686;2023-02-10T00:25:16;101224.59;;;2.01;53.38
63343;BME280;49465;57.664;39.686;2023-02-10T00:27:51;101229.78;;;1.97;52.88
63343;BME280;49465;57.664;39.686;2023-02-10T00:30:39;101225.25;;;2.13;53.71
63343;BME280;49465;57.664;39.686;2023-02-10T00:33:16;101221.03;;;2.08;52.95
63343;BME280;49465;57.664;39.686;2023-02-10T00:35:53;101217.06;;;1.82;53.82
63343;BME280;49465;57.664;39.686;2023-02-10T00:38:33;101213.50;;;1.91;53.08
63343;BME280;49465;57.664;39.686;2023-02-10T00:41:17;101207.97;;;2.17;53.21
63343;BME280;49465;57.664;39.686;2023-02-10T00:43:56;101203.09;;;1.95;53.46
63343;BME280;49465;57.664;39.686;2023-02-10T00:46:31;101204.94;;;1.87;53.54
63343;BME280;49465;57.664;39.686;2023-02-10T00:49:06;101198.94;;;1.85;53.59
63343;BME280;49465;57.664;39.686;2023-02-10T00:51:43;101196.34;;;1.87;53.38
63343;BME280;49465;57.664;39.686;2023-02-10T00:54:18;101188.50;;;1.91;53.42
63343;BME280;49465;57.664;39.686;2023-02-10T00:56:55;101178.06;;;1.97;52.92
63343;BME280;49465;57.664;39.686;2023-02-10T00:59:32;101174.84;;;1.80;53.54
63343;BME280;49465;57.664;39.686;2023-02-10T01:02:09;101167.16;;;1.78;53.73
63343;BME280;49465;57.664;39.686;2023-02-10T01:04:46;101167.78;;;1.94;53.60
63343;BME280;49465;57.664;39.686;2023-02-10T01:07:18;101155.78;;;1.90;52.95
63343;BME280;49465;57.664;39.686;2023-02-10T01:09:57;101160.78;;;2.00;52.63
63343;BME280;49465;57.664;39.686;2023-02-10T01:12:30;101147.69;;;2.10;53.07
63343;BME280;49465;57.664;39.686;2023-02-10T01:15:02;101147.13;;;1.90;52.90
63343;BME280;49465;57.664;39.686;2023-02-10T01:17:42;101137.94;;;2.26;52.80
63343;BME280;49465;57.664;39.686;2023-02-10T01:20:19;101146.75;;;2.16;53.01
63343;BME280;49465;57.664;39.686;2023-02-10T01:22:52;101133.44;;;1.83;53.40
63343;BME280;49465;57.664;39.686;2023-02-10T01:25:29;101138.72;;;1.77;53.05
63343;BME280;49465;57.664;39.686;2023-02-10T01:28:09;101129.91;;;1.90;52.80
63343;BME280;49465;57.664;39.686;2023-02-10T01:30:41;101129.19;;;1.81;52.92
63343;BME280;49465;57.664;39.686;2023-02-10T01:33:18;101118.75;;;1.87;52.57
63343;BME280;49465;57.664;39.686;2023-02-10T01:36:01;101103.44;;;1.73;53.89
63343;BME280;49465;57.664;39.686;2023-02-10T01:38:39;101120.09;;;1.53;54.13
63343;BME280;49465;57.664;39.686;2023-02-10T01:41:15;101120.09;;;1.52;54.14
63343;BME280;49465;57.664;39.686;2023-02-10T01:44:03;101107.69;;;1.75;53.98
63343;BME280;49465;57.664;39.686;2023-02-10T01:46:37;101101.00;;;1.61;53.35
63343;BME280;49465;57.664;39.686;2023-02-10T01:49:12;101092.69;;;1.97;53.50
63343;BME280;49465;57.664;39.686;2023-02-10T01:52:09;101082.66;;;1.77;53.95
63343;BME280;49465;57.664;39.686;2023-02-10T01:54:45;101078.66;;;2.14;53.06
63343;BME280;49465;57.664;39.686;2023-02-10T01:57:23;101079.28;;;1.74;53.12
63343;BME280;49465;57.664;39.686;2023-02-10T02:00:01;101065.28;;;1.87;53.00
63343;BME280;49465;57.664;39.686;2023-02-10T02:02:38;101059.41;;;1.76;53.02
63343;BME280;49465;57.664;39.686;2023-02-10T02:05:27;101062.00;;;1.77;53.44
63343;BME280;49465;57.664;39.686;2023-02-10T02:08:29;101061.03;;;1.83;53.59
63343;BME280;49465;57.664;39.686;2023-02-10T02:17:18;101042.75;;;1.94;53.30
63343;BME280;49465;57.664;39.686;2023-02-10T02:23:15;101025.81;;;1.74;53.46
63343;BME280;49465;57.664;39.686;2023-02-10T02:29:24;101010.50;;;1.62;53.91
63343;BME280;49465;57.664;39.686;2023-02-10T02:32:44;101008.28;;;1.93;52.74
63343;BME280;49465;57.664;39.686;2023-02-10T02:36:16;100993.59;;;1.95;52.85
63343;BME280;49465;57.664;39.686;2023-02-10T02:38:36;100993.91;;;1.77;52.60
63343;BME280;49465;57.664;39.686;2023-02-10T02:41:09;100993.09;;;1.75;53.06
63343;BME280;49465;57.664;39.686;2023-02-10T02:43:42;100982.66;;;1.78;52.87
63343;BME280;49465;57.664;39.686;2023-02-10T02:49:29;100979.03;;;1.37;53.05
63343;BME280;49465;57.664;39.686;2023-02-10T02:52:22;100981.81;;;1.79;53.53
63343;BME280;49465;57.664;39.686;2023-02-10T02:54:53;100974.38;;;1.59;53.03
63343;BME280;49465;57.664;39.686;2023-02-10T02:58:01;100964.03;;;2.09;52.66
63343;BME280;49465;57.664;39.686;2023-02-10T03:00:43;100969.69;;;1.83;52.60
63343;BME280;49465;57.664;39.686;2023-02-10T03:03:25;100950.94;;;1.70;52.76
63343;BME280;49465;57.664;39.686;2023-02-10T03:05:57;100953.72;;;1.59;52.79
63343;BME280;49465;57.664;39.686;2023-02-10T03:08:37;100946.66;;;1.69;53.19
63343;BME280;49465;57.664;39.686;2023-02-10T03:11:12;100935.81;;;1.47;53.07
63343;BME280;49465;57.664;39.686;2023-02-10T03:13:53;100929.69;;;1.51;52.41
63343;BME280;49465;57.664;39.686;2023-02-10T03:16:33;100919.03;;;1.71;52.58
63343;BME280;49465;57.664;39.686;2023-02-10T03:19:10;100907.91;;;1.66;52.29
63343;BME280;49465;57.664;39.686;2023-02-10T03:21:45;100905.69;;;1.46;52.87
63343;BME280;49465;57.664;39.686;2023-02-10T03:24:24;100898.41;;;1.68;52.31
63343;BME280;49465;57.664;39.686;2023-02-10T03:27:04;100882.06;;;1.66;52.21
63343;BME280;49465;57.664;39.686;2023-02-10T03:29:46;100890.31;;;1.86;52.41
63343;BME280;49465;57.664;39.686;2023-02-10T03:32:25;100894.16;;;1.64;52.22
63343;BME280;49465;57.664;39.686;2023-02-10T03:35:05;100888.16;;;1.62;52.67
63343;BME280;49465;57.664;39.686;2023-02-10T03:37:42;100876.09;;;1.61;52.26
63343;BME280;49465;57.664;39.686;2023-02-10T03:40:18;100878.50;;;1.73;52.67
63343;BME280;49465;57.664;39.686;2023-02-10T03:42:55;100871.75;;;1.64;52.64
63343;BME280;49465;57.664;39.686;2023-02-10T03:45:31;100869.97;;;1.66;52.13
63343;BME280;49465;57.664;39.686;2023-02-10T03:48:11;100866.78;;;1.53;52.67
63343;BME280;49465;57.664;39.686;2023-02-10T03:50:43;100865.25;;;1.43;52.81
63343;BME280;49465;57.664;39.686;2023-02-10T03:53:23;100860.81;;;1.48;52.71
63343;BME280;49465;57.664;39.686;2023-02-10T03:56:00;100853.16;;;1.45;52.70
63343;BME280;49465;57.664;39.686;2023-02-10T03:58:32;100848.84;;;1.44;52.58
63343;BME280;49465;57.664;39.686;2023-02-10T04:01:17;100844.19;;;1.65;52.66
63343;BME280;49465;57.664;39.686;2023-02-10T04:03:59;100830.78;;;1.41;52.51
63343;BME280;49465;57.664;39.686;2023-02-10T04:06:36;100828.84;;;1.54;52.09
63343;BME280;49465;57.664;39.686;2023-02-10T04:09:13;100822.97;;;1.47;52.49
63343;BME280;49465;57.664;39.686;2023-02-10T04:11:51;100824.81;;;1.39;52.23
63343;BME280;49465;57.664;39.686;2023-02-10T04:14:28;100826.44;;;1.45;52.51
63343;BME280;49465;57.664;39.686;2023-02-10T04:17:03;100821.25;;;1.46;52.23
63343;BME280;49465;57.664;39.686;2023-02-10T04:19:43;100819.59;;;1.42;51.65
63343;BME280;49465;57.664;39.686;2023-02-10T04:22:27;100816.22;;;1.37;52.10
63343;BME280;49465;57.664;39.686;2023-02-10T04:25:05;100809.75;;;2.05;51.81
63343;BME280;49465;57.664;39.686;2023-02-10T04:27:41;100811.81;;;1.45;51.61
63343;BME280;49465;57.664;39.686;2023-02-10T04:30:16;100806.69;;;1.42;52.31
63343;BME280;49465;57.664;39.686;2023-02-10T04:33:04;100797.03;;;1.50;52.11
63343;BME280;49465;57.664;39.686;2023-02-10T04:35:38;100800.69;;;1.40;52.22
63343;BME280;49465;57.664;39.686;2023-02-10T04:38:22;100803.50;;;1.28;52.22
63343;BME280;49465;57.664;39.686;2023-02-10T04:40:59;100802.47;;;1.35;52.49
63343;BME280;49465;57.664;39.686;2023-02-10T04:43:39;100798.22;;;1.34;52.19
63343;BME280;49465;57.664;39.686;2023-02-10T04:46:14;100790.50;;;1.31;52.01
63343;BME280;49465;57.664;39.686;2023-02-10T04:48:54;100794.78;;;1.33;52.08
63343;BME280;49465;57.664;39.686;2023-02-10T04:51:34;100792.09;;;1.38;51.97
63343;BME280;49465;57.664;39.686;2023-02-10T04:54:09;100794.75;;;1.35;52.18
63343;BME280;49465;57.664;39.686;2023-02-10T04:56:46;100787.91;;;1.32;52.30
63343;BME280;49465;57.664;39.686;2023-02-10T04:59:23;100783.66;;;1.30;51.98
63343;BME280;49465;57.664;39.686;2023-02-10T05:01:55;100787.94;;;1.29;52.57
63343;BME280;49465;57.664;39.686;2023-02-10T05:04:25;100779.97;;;1.43;51.99
63343;BME280;49465;57.664;39.686;2023-02-10T05:07:02;100782.69;;;1.35;52.26
63343;BME280;49465;57.664;39.686;2023-02-10T05:09:32;100775.81;;;1.33;52.11
63343;BME280;49465;57.664;39.686;2023-02-10T05:12:10;100771.00;;;1.16;52.23
63343;BME280;49465;57.664;39.686;2023-02-10T05:14:43;100775.94;;;1.27;52.47
63343;BME280;49465;57.664;39.686;2023-02-10T05:17:26;100775.34;;;2.01;51.50
63343;BME280;49465;57.664;39.686;2023-02-10T05:19:58;100773.28;;;1.31;52.09
63343;BME280;49465;57.664;39.686;2023-02-10T05:22:32;100761.19;;;1.33;52.42
63343;BME280;49465;57.664;39.686;2023-02-10T05:25:03;100757.03;;;1.25;52.07
63343;BME280;49465;57.664;39.686;2023-02-10T05:27:34;100759.63;;;1.25;52.06
63343;BME280;49465;57.664;39.686;2023-02-10T05:30:10;100750.06;;;1.30;51.92
63343;BME280;49465;57.664;39.686;2023-02-10T05:32:43;100746.03;;;1.13;52.19
63343;BME280;49465;57.664;39.686;2023-02-10T05:35:18;100754.34;;;1.29;52.48
63343;BME280;49465;57.664;39.686;2023-02-10T05:37:49;100747.63;;;1.22;52.32
63343;BME280;49465;57.664;39.686;2023-02-10T05:40:26;100740.75;;;1.19;51.95
63343;BME280;49465;57.664;39.686;2023-02-10T05:43:02;100728.63;;;1.25;52.08
63343;BME280;49465;57.664;39.686;2023-02-10T05:45:35;100724.50;;;1.16;52.32
63343;BME280;49465;57.664;39.686;2023-02-10T05:48:14;100720.59;;;1.38;52.04
63343;BME280;49465;57.664;39.686;2023-02-10T05:50:55;100719.13;;;1.25;51.99
63343;BME280;49465;57.664;39.686;2023-02-10T05:53:34;100713.53;;;1.48;51.27
63343;BME280;49465;57.664;39.686;2023-02-10T05:56:14;100716.66;;;1.19;52.24
63343;BME280;49465;57.664;39.686;2023-02-10T05:58:54;100707.94;;;1.25;51.84
63343;BME280;49465;57.664;39.686;2023-02-10T06:01:31;100707.09;;;1.26;52.31
63343;BME280;49465;57.664;39.686;2023-02-10T06:04:03;100704.00;;;1.05;51.79
63343;BME280;49465;57.664;39.686;2023-02-10T06:06:46;100693.41;;;1.21;52.05
63343;BME280;49465;57.664;39.686;2023-02-10T06:09:28;100686.41;;;1.26;51.74
63343;BME280;49465;57.664;39.686;2023-02-10T06:12:05;100684.66;;;1.28;51.46
63343;BME280;49465;57.664;39.686;2023-02-10T06:14:48;100679.41;;;1.31;51.38
63343;BME280;49465;57.664;39.686;2023-02-10T06:17:30;100677.69;;;1.31;51.04
63343;BME280;49465;57.664;39.686;2023-02-10T06:20:10;100673.59;;;1.19;51.85
63343;BME280;49465;57.664;39.686;2023-02-10T06:22:47;100674.44;;;1.22;51.59
63343;BME280;49465;57.664;39.686;2023-02-10T06:25:22;100669.28;;;1.22;51.34
63343;BME280;49465;57.664;39.686;2023-02-10T06:28:02;100669.97;;;1.30;51.56
63343;BME280;49465;57.664;39.686;2023-02-10T06:30:48;100662.81;;;1.43;51.32
63343;BME280;49465;57.664;39.686;2023-02-10T06:33:29;100651.00;;;1.29;50.99
63343;BME280;49465;57.664;39.686;2023-02-10T06:36:07;100655.47;;;1.23;51.56
63343;BME280;49465;57.664;39.686;2023-02-10T06:38:42;100654.09;;;1.47;51.14
63343;BME280;49465;57.664;39.686;2023-02-10T06:41:21;100645.63;;;1.42;51.41
63343;BME280;49465;57.664;39.686;2023-02-10T06:43:53;100629.38;;;1.35;51.19
63343;BME280;49465;57.664;39.686;2023-02-10T06:46:23;100619.81;;;1.40;51.37
63343;BME280;49465;57.664;39.686;2023-02-10T06:48:52;100608.00;;;1.28;51.18
63343;BME280;49465;57.664;39.686;2023-02-10T06:51:19;100601.09;;;1.29;51.19
63343;BME280;49465;57.664;39.686;2023-02-10T06:54:06;100597.69;;;1.66;51.48
63343;BME280;49465;57.664;39.686;2023-02-10T06:56:41;100588.63;;;1.48;51.58
63343;BME280;49465;57.664;39.686;2023-02-10T06:59:12;100583.56;;;1.43;51.64
63343;BME280;49465;57.664;39.686;2023-02-10T07:01:47;100584.53;;;1.76;51.14
63343;BME280;49465;57.664;39.686;2023-02-10T07:04:20;100576.19;;;1.65;51.57
63343;BME280;49465;57.664;39.686;2023-02-10T07:06:52;100553.41;;;1.81;51.36
63343;BME280;49465;57.664;39.686;2023-02-10T07:09:27;100545.44;;;1.90;50.92
63343;BME280;49465;57.664;39.686;2023-02-10T07:12:07;100543.41;;;2.02;50.98
63343;BME280;49465;57.664;39.686;2023-02-10T07:14:37;100539.94;;;2.03;51.28
63343;BME280;49465;57.664;39.686;2023-02-10T07:17:11;100534.66;;;2.06;51.13
63343;BME280;49465;57.664;39.686;2023-02-10T07:19:55;100534.66;;;2.06;50.56
63343;BME280;49465;57.664;39.686;2023-02-10T07:22:32;100525.75;;;2.17;50.54
63343;BME280;49465;57.664;39.686;2023-02-10T07:25:07;100513.69;;;2.18;50.80
63343;BME280;49465;57.664;39.686;2023-02-10T07:27:39;100524.50;;;2.32;50.12
63343;BME280;49465;57.664;39.686;2023-02-10T07:30:24;100514.56;;;2.50;51.12
63343;BME280;49465;57.664;39.686;2023-02-10T07:32:56;100516.56;;;2.38;50.51
63343;BME280;49465;57.664;39.686;2023-02-10T07:35:33;100504.03;;;2.56;50.72
63343;BME280;49465;57.664;39.686;2023-02-10T07:38:08;100505.03;;;2.50;50.87
63343;BME280;49465;57.664;39.686;2023-02-10T07:40:34;100485.53;;;2.38;50.19
63343;BME280;49465;57.664;39.686;2023-02-10T07:43:09;100487.44;;;2.32;51.24
63343;BME280;49465;57.664;39.686;2023-02-10T07:45:41;100495.47;;;2.54;52.05
63343;BME280;49465;57.664;39.686;2023-02-10T07:48:19;100485.25;;;2.49;50.77
63343;BME280;49465;57.664;39.686;2023-02-10T07:51:01;100475.81;;;2.47;50.13
63343;BME280;49465;57.664;39.686;2023-02-10T07:53:30;100481.56;;;2.56;50.28
63343;BME280;49465;57.664;39.686;2023-02-10T07:56:14;100469.78;;;2.46;50.93
63343;BME280;49465;57.664;39.686;2023-02-10T07:58:47;100456.38;;;2.63;49.03
63343;BME280;49465;57.664;39.686;2023-02-10T08:01:19;100464.41;;;2.54;51.07
63343;BME280;49465;57.664;39.686;2023-02-10T08:03:50;100464.31;;;2.57;50.39
63343;BME280;49465;57.664;39.686;2023-02-10T08:06:24;100449.31;;;2.68;50.30
63343;BME280;49465;57.664;39.686;2023-02-10T08:08:58;100437.84;;;2.77;49.13
63343;BME280;49465;57.664;39.686;2023-02-10T08:11:31;100431.41;;;2.61;50.05
63343;BME280;49465;57.664;39.686;2023-02-10T08:14:03;100427.97;;;2.60;48.97
63343;BME280;49465;57.664;39.686;2023-02-10T08:16:42;100435.09;;;2.82;49.93
63343;BME280;49465;57.664;39.686;2023-02-10T08:19:19;100428.31;;;2.77;49.61
63343;BME280;49465;57.664;39.686;2023-02-10T08:22:06;100409.66;;;2.96;49.76
63343;BME280;49465;57.664;39.686;2023-02-10T08:24:47;100406.16;;;2.69;50.67
63343;BME280;49465;57.664;39.686;2023-02-10T08:27:28;100401.59;;;2.77;49.93
63343;BME280;49465;57.664;39.686;2023-02-10T08:30:02;100397.97;;;2.83;49.95
63343;BME280;49465;57.664;39.686;2023-02-10T08:32:43;100398.41;;;2.95;48.88
63343;BME280;49465;57.664;39.686;2023-02-10T08:35:24;100388.03;;;2.97;49.88
63343;BME280;49465;57.664;39.686;2023-02-10T08:38:00;100374.59;;;2.84;48.13
63343;BME280;49465;57.664;39.686;2023-02-10T08:40:43;100378.66;;;2.93;50.05
63343;BME280;49465;57.664;39.686;2023-02-10T08:43:15;100385.66;;;2.89;49.98
63343;BME280;49465;57.664;39.686;2023-02-10T08:49:17;100370.03;;;2.92;48.84
63343;BME280;49465;57.664;39.686;2023-02-10T08:52:05;100363.31;;;3.13;48.94
63343;BME280;49465;57.664;39.686;2023-02-10T08:54:57;100347.38;;;3.26;49.14
63343;BME280;49465;57.664;39.686;2023-02-10T08:57:33;100344.06;;;2.94;48.31
63343;BME280;49465;57.664;39.686;2023-02-10T09:00:09;100341.47;;;2.94;48.48
63343;BME280;49465;57.664;39.686;2023-02-10T09:02:48;100332.59;;;3.03;49.52
63343;BME280;49465;57.664;39.686;2023-02-10T09:05:26;100321.38;;;3.02;48.91
63343;BME280;49465;57.664;39.686;2023-02-10T09:08:01;100322.88;;;2.83;49.16
63343;BME280;49465;57.664;39.686;2023-02-10T09:10:41;100326.84;;;3.70;49.44
63343;BME280;49465;57.664;39.686;2023-02-10T09:13:18;100325.84;;;2.97;47.35
63343;BME280;49465;57.664;39.686;2023-02-10T09:16:05;100303.72;;;3.13;49.85
63343;BME280;49465;57.664;39.686;2023-02-10T09:18:44;100294.06;;;2.92;49.69
63343;BME280;49465;57.664;39.686;2023-02-10T09:21:24;100290.88;;;2.84;47.79
63343;BME280;49465;57.664;39.686;2023-02-10T09:24:01;100288.78;;;2.95;48.04
63343;BME280;49465;57.664;39.686;2023-02-10T09:26:41;100288.88;;;2.92;47.89
63343;BME280;49465;57.664;39.686;2023-02-10T09:29:11;100289.19;;;2.83;49.22
63343;BME280;49465;57.664;39.686;2023-02-10T09:31:45;100287.63;;;3.04;49.64
63343;BME280;49465;57.664;39.686;2023-02-10T09:34:20;100281.56;;;3.05;48.76
63343;BME280;49465;57.664;39.686;2023-02-10T09:36:52;100275.75;;;2.98;48.27
63343;BME280;49465;57.664;39.686;2023-02-10T09:39:28;100272.00;;;3.07;47.95
63343;BME280;49465;57.664;39.686;2023-02-10T09:45:18;100272.56;;;3.15;49.06
63343;BME280;49465;57.664;39.686;2023-02-10T09:47:52;100270.94;;;3.12;47.12
63343;BME280;49465;57.664;39.686;2023-02-10T09:50:45;100266.66;;;3.11;49.54
63343;BME280;49465;57.664;39.686;2023-02-10T09:53:25;100256.38;;;3.10;48.53
63343;BME280;49465;57.664;39.686;2023-02-10T09:55:59;100242.72;;;3.05;48.60
63343;BME280;49465;57.664;39.686;2023-02-10T09:58:44;100233.72;;;3.15;47.74
63343;BME280;49465;57.664;39.686;2023-02-10T10:06:31;100213.25;;;3.07;48.01
63343;BME280;49465;57.664;39.686;2023-02-10T10:11:45;100198.63;;;3.06;48.42
63343;BME280;49465;57.664;39.686;2023-02-10T10:14:22;100189.94;;;3.07;48.14
63343;BME280;49465;57.664;39.686;2023-02-10T10:20:02;100165.25;;;3.22;48.45
63343;BME280;49465;57.664;39.686;2023-02-10T10:26:02;100139.19;;;3.49;45.42
63343;BME280;49465;57.664;39.686;2023-02-10T10:29:01;100138.78;;;3.38;48.88
63343;BME280;49465;57.664;39.686;2023-02-10T10:31:41;100128.56;;;3.33;48.01
63343;BME280;49465;57.664;39.686;2023-02-10T10:34:20;100119.75;;;3.13;46.33
63343;BME280;49465;57.664;39.686;2023-02-10T10:36:58;100107.69;;;3.14;45.89
63343;BME280;49465;57.664;39.686;2023-02-10T10:39:42;100113.50;;;3.43;47.63
63343;BME280;49465;57.664;39.686;2023-02-10T10:48:01;100092.66;;;3.46;47.06
63343;BME280;49465;57.664;39.686;2023-02-10T10:50:35;100088.47;;;3.20;45.94
63343;BME280;49465;57.664;39.686;2023-02-10T10:56:06;100079.25;;;3.34;46.37
63343;BME280;49465;57.664;39.686;2023-02-10T10:58:43;100082.03;;;3.30;46.13
63343;BME280;49465;57.664;39.686;2023-02-10T11:01:39;100069.88;;;3.32;47.42
63343;BME280;49465;57.664;39.686;2023-02-10T11:06:55;100049.78;;;3.37;46.98
63343;BME280;49465;57.664;39.686;2023-02-10T11:09:40;100037.50;;;3.64;47.27
63343;BME280;49465;57.664;39.686;2023-02-10T11:12:31;100036.13;;;3.55;46.51
63343;BME280;49465;57.664;39.686;2023-02-10T11:18:30;100024.63;;;3.63;45.35
63343;BME280;49465;57.664;39.686;2023-02-10T11:21:08;100022.25;;;3.56;46.86
63343;BME280;49465;57.664;39.686;2023-02-10T11:23:51;100021.34;;;3.58;45.73
63343;BME280;49465;57.664;39.686;2023-02-10T11:26:23;100010.44;;;3.49;45.75
63343;BME280;49465;57.664;39.686;2023-02-10T11:28:55;100011.63;;;3.41;47.24
63343;BME280;49465;57.664;39.686;2023-02-10T11:31:41;100009.00;;;3.42;46.62
63343;BME280;49465;57.664;39.686;2023-02-10T11:34:27;99999.47;;;3.65;46.03
63343;BME280;49465;57.664;39.686;2023-02-10T11:37:16;100000.56;;;3.59;46.91
63343;BME280;49465;57.664;39.686;2023-02-10T11:39:48;99997.78;;;3.42;46.88
63343;BME280;49465;57.664;39.686;2023-02-10T11:42:25;99994.75;;;3.52;46.64
63343;BME280;49465;57.664;39.686;2023-02-10T11:47:41;99977.84;;;3.64;46.66
63343;BME280;49465;57.664;39.686;2023-02-10T11:50:25;99981.84;;;3.73;45.33
63343;BME280;49465;57.664;39.686;2023-02-10T11:53:07;99973.13;;;3.74;47.41
63343;BME280;49465;57.664;39.686;2023-02-10T11:55:57;99975.94;;;3.69;47.50
63343;BME280;49465;57.664;39.686;2023-02-10T12:05:21;99967.59;;;3.83;46.20
63343;BME280;49465;57.664;39.686;2023-02-10T12:08:52;99963.75;;;3.71;46.91
63343;BME280;49465;57.664;39.686;2023-02-10T12:26:03;99960.56;;;3.85;46.50
63343;BME280;49465;57.664;39.686;2023-02-10T12:29:41;99961.59;;;4.02;46.31
63343;BME280;49465;57.664;39.686;2023-02-10T12:35:04;99951.66;;;3.70;46.53
63343;BME280;49465;57.664;39.686;2023-02-10T12:37:41;99943.69;;;3.54;46.34
63343;BME280;49465;57.664;39.686;2023-02-10T12:40:47;99945.34;;;3.98;47.38
63343;BME280;49465;57.664;39.686;2023-02-10T12:43:38;99939.78;;;3.87;44.65
63343;BME280;49465;57.664;39.686;2023-02-10T12:46:32;99935.88;;;3.76;47.07
63343;BME280;49465;57.664;39.686;2023-02-10T12:52:19;99921.38;;;3.72;45.82
63343;BME280;49465;57.664;39.686;2023-02-10T12:55:10;99903.78;;;3.79;45.05
63343;BME280;49465;57.664;39.686;2023-02-10T12:57:59;99890.38;;;3.69;45.26
63343;BME280;49465;57.664;39.686;2023-02-10T13:00:41;99876.81;;;3.63;45.17
63343;BME280;49465;57.664;39.686;2023-02-10T13:03:28;99868.56;;;3.73;46.14
63343;BME280;49465;57.664;39.686;2023-02-10T13:06:19;99881.88;;;3.86;47.03
63343;BME280;49465;57.664;39.686;2023-02-10T13:12:45;99889.06;;;3.80;46.96
63343;BME280;49465;57.664;39.686;2023-02-10T13:15:05;99902.81;;;3.61;45.46
63343;BME280;49465;57.664;39.686;2023-02-10T13:17:44;99900.00;;;3.66;44.71
63343;BME280;49465;57.664;39.686;2023-02-10T13:34:31;99895.03;;;3.61;45.52
63343;BME280;49465;57.664;39.686;2023-02-10T13:37:27;99894.06;;;3.84;46.24
63343;BME280;49465;57.664;39.686;2023-02-10T13:43:00;99869.53;;;3.50;46.66
63343;BME280;49465;57.664;39.686;2023-02-10T13:45:48;99878.31;;;3.48;46.07
63343;BME280;49465;57.664;39.686;2023-02-10T13:48:32;99872.75;;;3.57;46.23
63343;BME280;49465;57.664;39.686;2023-02-10T13:51:14;99861.66;;;3.53;46.65
63343;BME280;49465;57.664;39.686;2023-02-10T13:53:49;99851.91;;;3.38;46.49
63343;BME280;49465;57.664;39.686;2023-02-10T13:56:28;99871.81;;;3.38;46.76
63343;BME280;49465;57.664;39.686;2023-02-10T13:58:58;99876.25;;;4.16;46.64
63343;BME280;49465;57.664;39.686;2023-02-10T14:01:41;99873.13;;;3.48;47.20
63343;BME280;49465;57.664;39.686;2023-02-10T14:07:00;99879.91;;;3.30;47.58
63343;BME280;49465;57.664;39.686;2023-02-10T14:09:36;99881.56;;;3.31;46.44
63343;BME280;49465;57.664;39.686;2023-02-10T14:12:26;99874.25;;;3.41;47.66
63343;BME280;49465;57.664;39.686;2023-02-10T14:15:07;99881.84;;;3.25;46.59
63343;BME280;49465;57.664;39.686;2023-02-10T14:17:41;99882.03;;;3.20;47.76
63343;BME280;49465;57.664;39.686;2023-02-10T14:21:07;99889.03;;;3.39;47.98
63343;BME280;49465;57.664;39.686;2023-02-10T14:23:50;99889.69;;;3.01;47.47
63343;BME280;49465;57.664;39.686;2023-02-10T14:26:34;99889.44;;;3.07;47.49
63343;BME280;49465;57.664;39.686;2023-02-10T14:29:16;99886.69;;;3.12;45.57
63343;BME280;49465;57.664;39.686;2023-02-10T14:31:49;99888.53;;;3.08;46.25
63343;BME280;49465;57.664;39.686;2023-02-10T14:34:32;99889.19;;;3.13;45.16
63343;BME280;49465;57.664;39.686;2023-02-10T14:40:04;99892.69;;;3.12;47.83
63343;BME280;49465;57.664;39.686;2023-02-10T14:42:44;99901.00;;;2.99;47.23
63343;BME280;49465;57.664;39.686;2023-02-10T14:45:26;99900.22;;;2.96;47.47
63343;BME280;49465;57.664;39.686;2023-02-10T14:48:02;99904.25;;;2.82;47.45
63343;BME280;49465;57.664;39.686;2023-02-10T14:50:41;99886.34;;;2.53;48.75
63343;BME280;49465;57.664;39.686;2023-02-10T14:53:20;99894.56;;;2.65;49.51
63343;BME280;49465;57.664;39.686;2023-02-10T14:56:05;99893.28;;;2.53;48.77
63343;BME280;49465;57.664;39.686;2023-02-10T14:58:42;99895.78;;;2.31;48.62
63343;BME280;49465;57.664;39.686;2023-02-10T15:01:25;99900.19;;;2.52;48.34
63343;BME280;49465;57.664;39.686;2023-02-10T15:04:00;99890.56;;;2.09;49.23
63343;BME280;49465;57.664;39.686;2023-02-10T15:06:31;99881.72;;;2.62;48.99
63343;BME280;49465;57.664;39.686;2023-02-10T15:09:18;99900.41;;;2.46;48.94
63343;BME280;49465;57.664;39.686;2023-02-10T15:12:00;99884.78;;;2.49;48.90
63343;BME280;49465;57.664;39.686;2023-02-10T15:14:51;99878.72;;;2.49;48.39
63343;BME280;49465;57.664;39.686;2023-02-10T15:17:39;99883.28;;;2.66;48.52
63343;BME280;49465;57.664;39.686;2023-02-10T15:23:09;99882.72;;;2.35;49.25
63343;BME280;49465;57.664;39.686;2023-02-10T15:25:45;99876.25;;;2.69;48.79
63343;BME280;49465;57.664;39.686;2023-02-10T15:28:31;99875.25;;;2.50;48.99
63343;BME280;49465;57.664;39.686;2023-02-10T15:31:26;99869.50;;;2.65;49.17
63343;BME280;49465;57.664;39.686;2023-02-10T15:34:02;99873.19;;;2.12;50.22
63343;BME280;49465;57.664;39.686;2023-02-10T15:36:54;99877.09;;;1.99;50.68
63343;BME280;49465;57.664;39.686;2023-02-10T15:39:42;99873.56;;;2.02;51.14
63343;BME280;49465;57.664;39.686;2023-02-10T15:45:33;99880.75;;;1.93;50.45
63343;BME280;49465;57.664;39.686;2023-02-10T15:47:52;99884.13;;;1.95;49.54
63343;BME280;49465;57.664;39.686;2023-02-10T15:50:30;99884.44;;;2.35;49.31